createdAt,value
2022-07-31T00:04:43.468Z,49.9
2022-07-31T00:10:43.457Z,49.7
2022-07-31T00:16:43.453Z,50.4
2022-07-31T00:22:43.452Z,51
2022-07-31T00:28:43.486Z,51
2022-07-31T00:34:43.491Z,51
2022-07-31T00:40:43.450Z,51.3
2022-07-31T00:46:43.472Z,52
2022-07-31T00:52:43.475Z,53
2022-07-31T00:58:43.470Z,53
2022-07-31T01:04:44.594Z,53.2
2022-07-31T01:10:43.486Z,53.4
2022-07-31T01:16:43.476Z,54
2022-07-31T01:22:43.467Z,54.1
2022-07-31T01:28:43.477Z,55.4
2022-07-31T01:34:43.496Z,54.2
2022-07-31T01:40:43.488Z,54.5
2022-07-31T01:46:43.504Z,54.8
2022-07-31T01:52:43.495Z,55
2022-07-31T01:58:43.474Z,55.3
2022-07-31T02:04:43.466Z,55.6
2022-07-31T02:10:43.517Z,56.2
2022-07-31T02:16:43.498Z,56.4
2022-07-31T02:22:43.508Z,56.4
2022-07-31T02:28:43.531Z,56.6
2022-07-31T02:34:43.501Z,56.9
2022-07-31T02:40:43.474Z,57.1
2022-07-31T02:46:43.485Z,57.5
2022-07-31T02:52:43.499Z,57.6
2022-07-31T02:58:43.483Z,57.9
2022-07-31T03:04:43.499Z,57.6
2022-07-31T03:10:43.499Z,57.3
2022-07-31T03:16:43.516Z,57.2
2022-07-31T03:22:43.524Z,56.8
2022-07-31T03:28:43.517Z,56.6
2022-07-31T03:34:43.502Z,56.3
2022-07-31T03:40:43.503Z,56.9
2022-07-31T03:46:43.492Z,56.8
2022-07-31T03:52:43.531Z,57
2022-07-31T03:58:43.510Z,56.5
2022-07-31T04:04:43.502Z,56.3
2022-07-31T04:10:43.520Z,56.6
2022-07-31T04:16:43.543Z,63
2022-07-31T04:22:43.578Z,65.4
2022-07-31T04:28:43.523Z,66.4
2022-07-31T04:34:43.541Z,64.7
2022-07-31T04:40:43.515Z,63.7
2022-07-31T04:46:43.537Z,60.3
2022-07-31T04:52:43.502Z,58.9
2022-07-31T04:58:43.509Z,58
2022-07-31T05:04:43.594Z,59.3
2022-07-31T05:10:43.535Z,58.5
2022-07-31T05:16:43.537Z,58.8
2022-07-31T05:22:43.527Z,58.4
2022-07-31T05:28:43.526Z,56.8
2022-07-31T05:34:43.556Z,58.6
2022-07-31T05:40:43.542Z,57.1
2022-07-31T05:46:43.543Z,58.2
2022-07-31T05:52:43.537Z,57.7
2022-07-31T05:58:43.545Z,56.2
2022-07-31T06:04:43.553Z,54.6
2022-07-31T06:10:43.521Z,53.4
2022-07-31T06:16:43.544Z,53
2022-07-31T06:22:43.559Z,53.1
2022-07-31T06:28:48.802Z,55.9
2022-07-31T06:34:43.563Z,53.2
2022-07-31T06:40:43.563Z,50.3
2022-07-31T06:46:48.719Z,51.3
2022-07-31T06:52:43.590Z,50.4
2022-07-31T06:58:43.564Z,51.1
2022-07-31T07:04:56.487Z,53.3
2022-07-31T07:10:43.575Z,52.8
2022-07-31T07:16:43.575Z,52.1
2022-07-31T07:22:43.578Z,50.9
2022-07-31T07:28:43.569Z,50.7
2022-07-31T07:34:43.562Z,50
2022-07-31T07:40:43.550Z,52.5
2022-07-31T07:46:43.597Z,52.2
2022-07-31T07:52:44.099Z,53.5
2022-07-31T07:58:43.623Z,54.9
2022-07-31T08:04:47.255Z,55.2
2022-07-31T08:10:43.563Z,55.1
2022-07-31T08:16:43.583Z,55.3
2022-07-31T08:22:43.555Z,55.4
2022-07-31T08:28:49.816Z,54.7
2022-07-31T08:34:43.580Z,54.2
2022-07-31T08:40:43.853Z,52.8
2022-07-31T08:46:43.579Z,46.1
2022-07-31T08:52:43.597Z,43.3
2022-07-31T08:58:43.577Z,40.6
2022-07-31T09:04:43.576Z,39
2022-07-31T09:10:49.430Z,34.7
2022-07-31T09:16:43.609Z,32.8
2022-07-31T09:22:43.616Z,34.8
2022-07-31T09:28:43.608Z,35.8
2022-07-31T09:34:43.602Z,37.9
2022-07-31T09:40:56.736Z,38.8
2022-07-31T09:46:43.609Z,33.3
2022-07-31T09:52:43.731Z,36.2
2022-07-31T09:58:43.606Z,37.6
2022-07-31T10:04:43.645Z,40.4
2022-07-31T10:10:43.625Z,40.7
2022-07-31T10:16:43.639Z,40.2
2022-07-31T10:22:43.631Z,40.6
2022-07-31T10:28:43.629Z,42.2
2022-07-31T10:34:43.652Z,40.5
2022-07-31T10:40:43.645Z,41.5
2022-07-31T10:46:43.623Z,41.1
2022-07-31T10:52:43.643Z,38.6
2022-07-31T10:58:43.673Z,39.4
2022-07-31T11:04:43.657Z,39.1
2022-07-31T11:10:43.654Z,37.8
2022-07-31T11:16:43.647Z,37.7
2022-07-31T11:22:43.640Z,37
2022-07-31T11:28:43.645Z,36.8
2022-07-31T11:34:43.697Z,37
2022-07-31T11:40:43.644Z,37.6
2022-07-31T11:46:43.681Z,38.3
2022-07-31T11:52:43.676Z,38.5
2022-07-31T11:58:43.684Z,37.5
2022-07-31T12:04:43.666Z,40.3
2022-07-31T12:10:53.943Z,39.9
2022-07-31T12:16:43.698Z,39.9
2022-07-31T12:22:43.673Z,39.3
2022-07-31T12:28:43.743Z,37.9
2022-07-31T12:34:43.697Z,39.3
2022-07-31T12:40:43.673Z,37.3
2022-07-31T12:46:43.688Z,37.5
2022-07-31T12:52:43.703Z,37
2022-07-31T12:58:43.674Z,37.7
2022-07-31T13:04:43.694Z,37
2022-07-31T13:10:43.691Z,38.3
2022-07-31T13:16:43.692Z,39.8
2022-07-31T13:22:43.691Z,37.7
2022-07-31T13:28:43.722Z,39.2
2022-07-31T13:34:43.705Z,40.7
2022-07-31T13:40:43.696Z,41.3
2022-07-31T13:46:43.741Z,41.8
2022-07-31T13:52:43.706Z,40.7
2022-07-31T13:58:43.722Z,40.6
2022-07-31T14:04:43.725Z,40.4
2022-07-31T14:10:43.733Z,40.1
2022-07-31T14:16:43.721Z,41.7
2022-07-31T14:22:43.718Z,42.6
2022-07-31T14:28:43.730Z,43.1
2022-07-31T14:34:43.731Z,42.9
2022-07-31T14:40:43.727Z,42.2
2022-07-31T14:46:43.722Z,43.9
2022-07-31T14:52:43.774Z,43.8
2022-07-31T14:58:57.446Z,44.9
2022-07-31T15:04:43.740Z,44.2
2022-07-31T15:10:43.745Z,45.5
2022-07-31T15:16:43.750Z,45
2022-07-31T15:22:43.738Z,46.9
2022-07-31T15:28:43.742Z,45.2
2022-07-31T15:34:43.793Z,45.7
2022-07-31T15:40:43.757Z,47.8
2022-07-31T15:46:43.749Z,47.6
2022-07-31T15:52:43.745Z,48
2022-07-31T15:58:43.782Z,46.9
2022-07-31T16:04:53.286Z,47.1
2022-07-31T16:10:43.733Z,48.2
2022-07-31T16:16:45.910Z,47.2
2022-07-31T16:22:43.763Z,46.9
2022-07-31T16:28:43.771Z,46.6
2022-07-31T16:34:43.770Z,47.3
2022-07-31T16:40:43.745Z,47.1
2022-07-31T16:46:43.749Z,47
2022-07-31T16:52:43.785Z,47
2022-07-31T16:58:43.938Z,45.9
2022-07-31T17:04:43.780Z,45.8
2022-07-31T17:10:43.766Z,46.5
2022-07-31T17:16:47.592Z,47.2
2022-07-31T17:22:43.788Z,47.4
2022-07-31T17:28:43.793Z,48.2
2022-07-31T17:34:43.786Z,48.5
2022-07-31T17:40:44.416Z,49.1
2022-07-31T17:46:48.359Z,49.3
2022-07-31T17:52:43.808Z,49.7
2022-07-31T17:58:43.794Z,49.7
2022-07-31T18:04:43.798Z,50.5
2022-07-31T18:10:54.000Z,51.5
2022-07-31T18:16:43.830Z,51.7
2022-07-31T18:22:49.259Z,52.2
2022-07-31T18:28:43.822Z,52.7
2022-07-31T18:34:43.797Z,53.4
2022-07-31T18:40:43.806Z,54.1
2022-07-31T18:46:43.831Z,54.5
2022-07-31T18:52:43.802Z,54.8
2022-07-31T18:58:43.816Z,54.8
2022-07-31T19:04:43.810Z,55.4
2022-07-31T19:10:43.796Z,55.6
2022-07-31T19:16:43.819Z,56.1
2022-07-31T19:22:43.809Z,57.2
2022-07-31T19:28:43.817Z,57.9
2022-07-31T19:34:48.086Z,57.8
2022-07-31T19:40:44.146Z,58.4
2022-07-31T19:46:43.797Z,58.8
2022-07-31T19:52:43.799Z,59.1
2022-07-31T19:58:43.854Z,59
2022-07-31T20:04:43.843Z,59.6
2022-07-31T20:10:43.833Z,60.3
2022-07-31T20:16:43.819Z,60.9
2022-07-31T20:22:43.835Z,61.2
2022-07-31T20:28:43.830Z,61
2022-07-31T20:34:43.830Z,61.1
2022-07-31T20:40:51.088Z,61.2
2022-07-31T20:46:43.828Z,61.9
2022-07-31T20:52:48.241Z,62.2
2022-07-31T20:58:46.230Z,63.4
2022-07-31T21:04:43.934Z,63.9
2022-07-31T21:10:43.853Z,64.8
2022-07-31T21:16:43.831Z,65
2022-07-31T21:22:43.835Z,64.8
2022-07-31T21:28:43.868Z,65.6
2022-07-31T21:34:43.839Z,65.9
2022-07-31T21:40:43.837Z,66.8
2022-07-31T21:46:50.556Z,66.5
2022-07-31T21:52:43.855Z,66.9
2022-07-31T21:58:43.857Z,71.4
2022-07-31T22:04:43.862Z,74.1
2022-07-31T22:10:43.843Z,76.1
2022-07-31T22:16:43.863Z,77.5
2022-07-31T22:22:43.874Z,79.6
2022-07-31T22:28:43.870Z,81.5
2022-07-31T22:34:43.848Z,83.1
2022-07-31T22:40:44.194Z,83
2022-07-31T22:46:43.899Z,83.3
2022-07-31T22:52:43.883Z,84.2
2022-07-31T22:58:43.929Z,84.5
2022-07-31T23:04:43.856Z,86.1
2022-07-31T23:10:43.875Z,84.4
2022-07-31T23:16:43.872Z,83.1
2022-07-31T23:22:43.888Z,83.8
2022-07-31T23:28:43.869Z,84.2
2022-07-31T23:34:43.893Z,84.5
2022-07-31T23:40:43.862Z,84
2022-07-31T23:46:43.864Z,82.9
2022-07-31T23:52:43.906Z,79
2022-07-31T23:58:43.875Z,78
